sensor_id;sensor_type;location;lat;lon;timestamp;temperature;humidity
27188;DHT22;14708;50.872;5.306;2022-10-15T00:00:48;21.50;71.50
27188;DHT22;14708;50.872;5.306;2022-10-15T00:03:14;21.50;71.50
27188;DHT22;14708;50.872;5.306;2022-10-15T00:05:40;21.50;72.00
27188;DHT22;14708;50.872;5.306;2022-10-15T00:08:07;21.50;71.30
27188;DHT22;14708;50.872;5.306;2022-10-15T00:10:33;21.50;71.40
27188;DHT22;14708;50.872;5.306;2022-10-15T00:12:59;21.50;71.40
27188;DHT22;14708;50.872;5.306;2022-10-15T00:15:25;21.50;71.30
27188;DHT22;14708;50.872;5.306;2022-10-15T00:17:51;21.50;71.30
27188;DHT22;14708;50.872;5.306;2022-10-15T00:20:16;21.40;71.40
27188;DHT22;14708;50.872;5.306;2022-10-15T00:22:42;21.40;71.40
27188;DHT22;14708;50.872;5.306;2022-10-15T00:25:08;21.40;71.30
27188;DHT22;14708;50.872;5.306;2022-10-15T00:27:34;21.50;71.40
27188;DHT22;14708;50.872;5.306;2022-10-15T00:30:00;21.40;71.30
27188;DHT22;14708;50.872;5.306;2022-10-15T00:32:28;21.40;71.30
27188;DHT22;14708;50.872;5.306;2022-10-15T00:34:56;21.40;71.40
27188;DHT22;14708;50.872;5.306;2022-10-15T00:37:22;21.40;71.40
27188;DHT22;14708;50.872;5.306;2022-10-15T00:39:48;21.40;71.40
27188;DHT22;14708;50.872;5.306;2022-10-15T00:42:14;21.40;71.40
27188;DHT22;14708;50.872;5.306;2022-10-15T00:44:55;21.40;71.30
27188;DHT22;14708;50.872;5.306;2022-10-15T00:47:40;21.40;71.40
27188;DHT22;14708;50.872;5.306;2022-10-15T00:50:11;21.40;71.30
27188;DHT22;14708;50.872;5.306;2022-10-15T00:57:49;21.30;71.20
27188;DHT22;14708;50.872;5.306;2022-10-15T01:00:16;21.40;71.20
27188;DHT22;14708;50.872;5.306;2022-10-15T01:02:43;21.40;71.30
27188;DHT22;14708;50.872;5.306;2022-10-15T01:05:09;21.40;71.20
27188;DHT22;14708;50.872;5.306;2022-10-15T01:07:35;21.30;71.30
27188;DHT22;14708;50.872;5.306;2022-10-15T01:10:02;21.40;71.30
27188;DHT22;14708;50.872;5.306;2022-10-15T01:15:49;21.30;71.10
27188;DHT22;14708;50.872;5.306;2022-10-15T01:18:23;21.30;71.10
27188;DHT22;14708;50.872;5.306;2022-10-15T01:21:15;21.30;71.10
27188;DHT22;14708;50.872;5.306;2022-10-15T01:26:32;21.30;70.90
27188;DHT22;14708;50.872;5.306;2022-10-15T01:31:53;21.30;70.80
27188;DHT22;14708;50.872;5.306;2022-10-15T01:34:42;21.30;71.00
27188;DHT22;14708;50.872;5.306;2022-10-15T01:39:42;21.30;70.90
27188;DHT22;14708;50.872;5.306;2022-10-15T01:42:16;21.30;70.90
27188;DHT22;14708;50.872;5.306;2022-10-15T01:44:50;21.30;70.90
27188;DHT22;14708;50.872;5.306;2022-10-15T01:47:26;21.30;71.10
27188;DHT22;14708;50.872;5.306;2022-10-15T01:49:54;21.30;70.90
27188;DHT22;14708;50.872;5.306;2022-10-15T01:52:26;21.20;70.80
27188;DHT22;14708;50.872;5.306;2022-10-15T01:54:54;21.30;71.00
27188;DHT22;14708;50.872;5.306;2022-10-15T01:57:21;21.30;70.90
27188;DHT22;14708;50.872;5.306;2022-10-15T01:59:48;21.20;70.90
27188;DHT22;14708;50.872;5.306;2022-10-15T02:02:14;21.30;71.10
27188;DHT22;14708;50.872;5.306;2022-10-15T02:04:40;21.30;70.90
27188;DHT22;14708;50.872;5.306;2022-10-15T02:07:17;21.20;70.90
27188;DHT22;14708;50.872;5.306;2022-10-15T02:15:44;21.20;71.00
27188;DHT22;14708;50.872;5.306;2022-10-15T02:18:25;21.20;70.90
27188;DHT22;14708;50.872;5.306;2022-10-15T02:26:15;21.20;71.00
27188;DHT22;14708;50.872;5.306;2022-10-15T02:28:44;21.20;71.00
27188;DHT22;14708;50.872;5.306;2022-10-15T02:31:13;21.20;71.00
27188;DHT22;14708;50.872;5.306;2022-10-15T02:33:39;21.20;70.90
27188;DHT22;14708;50.872;5.306;2022-10-15T02:36:06;21.20;70.90
27188;DHT22;14708;50.872;5.306;2022-10-15T02:38:34;21.20;71.00
27188;DHT22;14708;50.872;5.306;2022-10-15T02:41:01;21.20;71.00
27188;DHT22;14708;50.872;5.306;2022-10-15T02:43:27;21.20;70.80
27188;DHT22;14708;50.872;5.306;2022-10-15T02:45:52;21.20;70.80
27188;DHT22;14708;50.872;5.306;2022-10-15T02:48:18;21.20;70.80
27188;DHT22;14708;50.872;5.306;2022-10-15T02:50:44;21.10;70.80
27188;DHT22;14708;50.872;5.306;2022-10-15T02:53:09;21.10;70.80
27188;DHT22;14708;50.872;5.306;2022-10-15T02:55:35;21.10;70.90
27188;DHT22;14708;50.872;5.306;2022-10-15T02:58:00;21.10;70.80
27188;DHT22;14708;50.872;5.306;2022-10-15T03:00:26;21.10;70.70
27188;DHT22;14708;50.872;5.306;2022-10-15T03:02:52;21.10;70.70
27188;DHT22;14708;50.872;5.306;2022-10-15T03:05:17;21.10;70.70
27188;DHT22;14708;50.872;5.306;2022-10-15T03:07:43;21.10;70.70
27188;DHT22;14708;50.872;5.306;2022-10-15T03:10:09;21.10;70.70
27188;DHT22;14708;50.872;5.306;2022-10-15T03:12:34;21.10;70.60
27188;DHT22;14708;50.872;5.306;2022-10-15T03:15:01;21.10;70.50
27188;DHT22;14708;50.872;5.306;2022-10-15T03:17:26;21.10;70.40
27188;DHT22;14708;50.872;5.306;2022-10-15T03:19:52;21.10;70.50
27188;DHT22;14708;50.872;5.306;2022-10-15T03:22:17;21.10;70.50
27188;DHT22;14708;50.872;5.306;2022-10-15T03:24:43;21.10;70.60
27188;DHT22;14708;50.872;5.306;2022-10-15T03:27:08;21.10;70.50
27188;DHT22;14708;50.872;5.306;2022-10-15T03:29:34;21.10;70.50
27188;DHT22;14708;50.872;5.306;2022-10-15T03:32:00;21.10;70.40
27188;DHT22;14708;50.872;5.306;2022-10-15T03:34:25;21.10;70.50
27188;DHT22;14708;50.872;5.306;2022-10-15T03:36:51;21.10;70.40
27188;DHT22;14708;50.872;5.306;2022-10-15T03:39:16;21.10;70.50
27188;DHT22;14708;50.872;5.306;2022-10-15T03:41:42;21.10;70.40
27188;DHT22;14708;50.872;5.306;2022-10-15T03:44:09;21.10;70.40
27188;DHT22;14708;50.872;5.306;2022-10-15T03:46:35;21.10;70.30
27188;DHT22;14708;50.872;5.306;2022-10-15T03:49:00;21.10;70.40
27188;DHT22;14708;50.872;5.306;2022-10-15T03:51:26;21.00;70.70
27188;DHT22;14708;50.872;5.306;2022-10-15T03:53:52;21.10;70.50
27188;DHT22;14708;50.872;5.306;2022-10-15T03:56:18;21.00;70.30
27188;DHT22;14708;50.872;5.306;2022-10-15T03:58:44;21.00;70.30
27188;DHT22;14708;50.872;5.306;2022-10-15T04:01:15;21.00;70.40
27188;DHT22;14708;50.872;5.306;2022-10-15T04:03:41;21.10;70.40
27188;DHT22;14708;50.872;5.306;2022-10-15T04:06:06;21.10;70.40
27188;DHT22;14708;50.872;5.306;2022-10-15T04:08:32;21.00;70.20
27188;DHT22;14708;50.872;5.306;2022-10-15T04:10:58;21.10;70.20
27188;DHT22;14708;50.872;5.306;2022-10-15T04:13:24;21.00;70.10
27188;DHT22;14708;50.872;5.306;2022-10-15T04:15:50;21.10;70.20
27188;DHT22;14708;50.872;5.306;2022-10-15T04:18:15;21.10;70.00
27188;DHT22;14708;50.872;5.306;2022-10-15T04:20:41;21.10;70.00
27188;DHT22;14708;50.872;5.306;2022-10-15T04:23:08;21.00;70.10
27188;DHT22;14708;50.872;5.306;2022-10-15T04:25:35;21.00;70.00
27188;DHT22;14708;50.872;5.306;2022-10-15T04:28:02;21.00;70.10
27188;DHT22;14708;50.872;5.306;2022-10-15T04:30:27;21.00;70.20
27188;DHT22;14708;50.872;5.306;2022-10-15T04:32:53;21.00;70.10
27188;DHT22;14708;50.872;5.306;2022-10-15T04:35:19;21.00;70.10
27188;DHT22;14708;50.872;5.306;2022-10-15T04:37:45;21.00;70.00
27188;DHT22;14708;50.872;5.306;2022-10-15T04:40:11;21.00;70.30
27188;DHT22;14708;50.872;5.306;2022-10-15T04:42:37;21.00;70.20
27188;DHT22;14708;50.872;5.306;2022-10-15T04:45:04;21.00;70.10
27188;DHT22;14708;50.872;5.306;2022-10-15T04:47:30;21.00;70.00
27188;DHT22;14708;50.872;5.306;2022-10-15T04:49:56;21.00;70.00
27188;DHT22;14708;50.872;5.306;2022-10-15T04:52:21;21.00;69.90
27188;DHT22;14708;50.872;5.306;2022-10-15T04:54:47;21.00;70.20
27188;DHT22;14708;50.872;5.306;2022-10-15T04:57:13;21.00;70.10
27188;DHT22;14708;50.872;5.306;2022-10-15T04:59:39;21.00;70.10
27188;DHT22;14708;50.872;5.306;2022-10-15T05:02:04;21.00;70.00
27188;DHT22;14708;50.872;5.306;2022-10-15T05:04:30;20.90;70.00
27188;DHT22;14708;50.872;5.306;2022-10-15T05:06:55;21.00;70.20
27188;DHT22;14708;50.872;5.306;2022-10-15T05:09:21;21.00;70.20
27188;DHT22;14708;50.872;5.306;2022-10-15T05:11:47;21.00;70.00
27188;DHT22;14708;50.872;5.306;2022-10-15T05:14:12;21.00;70.00
27188;DHT22;14708;50.872;5.306;2022-10-15T05:16:38;21.00;69.80
27188;DHT22;14708;50.872;5.306;2022-10-15T05:19:06;21.00;70.00
27188;DHT22;14708;50.872;5.306;2022-10-15T05:21:33;20.90;70.10
27188;DHT22;14708;50.872;5.306;2022-10-15T05:23:59;21.00;69.80
27188;DHT22;14708;50.872;5.306;2022-10-15T05:26:27;21.00;70.00
27188;DHT22;14708;50.872;5.306;2022-10-15T05:28:54;21.00;70.10
27188;DHT22;14708;50.872;5.306;2022-10-15T05:31:21;21.00;70.00
27188;DHT22;14708;50.872;5.306;2022-10-15T05:33:48;20.90;70.00
27188;DHT22;14708;50.872;5.306;2022-10-15T05:36:19;20.90;70.10
27188;DHT22;14708;50.872;5.306;2022-10-15T05:38:48;20.90;69.90
27188;DHT22;14708;50.872;5.306;2022-10-15T05:41:14;20.90;69.80
27188;DHT22;14708;50.872;5.306;2022-10-15T05:43:40;20.90;70.00
27188;DHT22;14708;50.872;5.306;2022-10-15T05:46:06;20.90;70.10
27188;DHT22;14708;50.872;5.306;2022-10-15T05:48:32;20.90;70.00
27188;DHT22;14708;50.872;5.306;2022-10-15T05:51:05;20.90;69.90
27188;DHT22;14708;50.872;5.306;2022-10-15T05:53:30;20.90;69.90
27188;DHT22;14708;50.872;5.306;2022-10-15T05:55:57;20.90;69.80
27188;DHT22;14708;50.872;5.306;2022-10-15T05:58:26;20.90;69.70
27188;DHT22;14708;50.872;5.306;2022-10-15T06:00:56;20.90;69.80
27188;DHT22;14708;50.872;5.306;2022-10-15T06:03:22;20.90;70.00
27188;DHT22;14708;50.872;5.306;2022-10-15T06:05:48;20.90;69.80
27188;DHT22;14708;50.872;5.306;2022-10-15T06:08:14;20.90;69.80
27188;DHT22;14708;50.872;5.306;2022-10-15T06:10:40;20.90;69.90
27188;DHT22;14708;50.872;5.306;2022-10-15T06:13:06;20.90;69.90
27188;DHT22;14708;50.872;5.306;2022-10-15T06:15:32;20.90;69.90
27188;DHT22;14708;50.872;5.306;2022-10-15T06:17:58;20.90;69.90
27188;DHT22;14708;50.872;5.306;2022-10-15T06:20:24;20.90;69.80
27188;DHT22;14708;50.872;5.306;2022-10-15T06:22:49;20.90;69.60
27188;DHT22;14708;50.872;5.306;2022-10-15T06:25:15;20.90;69.70
27188;DHT22;14708;50.872;5.306;2022-10-15T06:27:41;20.90;69.60
27188;DHT22;14708;50.872;5.306;2022-10-15T06:30:07;20.90;69.90
27188;DHT22;14708;50.872;5.306;2022-10-15T06:32:33;20.90;69.80
27188;DHT22;14708;50.872;5.306;2022-10-15T06:34:59;21.00;69.50
27188;DHT22;14708;50.872;5.306;2022-10-15T06:37:24;21.00;68.50
27188;DHT22;14708;50.872;5.306;2022-10-15T06:39:52;21.10;67.80
27188;DHT22;14708;50.872;5.306;2022-10-15T06:42:18;21.10;67.20
27188;DHT22;14708;50.872;5.306;2022-10-15T06:44:43;21.10;67.10
27188;DHT22;14708;50.872;5.306;2022-10-15T06:47:09;21.10;67.00
27188;DHT22;14708;50.872;5.306;2022-10-15T06:49:34;21.20;67.10
27188;DHT22;14708;50.872;5.306;2022-10-15T06:52:00;21.20;67.70
27188;DHT22;14708;50.872;5.306;2022-10-15T06:54:25;21.20;64.60
27188;DHT22;14708;50.872;5.306;2022-10-15T06:56:51;21.20;64.20
27188;DHT22;14708;50.872;5.306;2022-10-15T06:59:16;21.20;64.20
27188;DHT22;14708;50.872;5.306;2022-10-15T07:01:42;21.10;66.30
27188;DHT22;14708;50.872;5.306;2022-10-15T07:04:07;21.20;67.50
27188;DHT22;14708;50.872;5.306;2022-10-15T07:06:35;21.20;66.60
27188;DHT22;14708;50.872;5.306;2022-10-15T07:09:01;21.10;66.80
27188;DHT22;14708;50.872;5.306;2022-10-15T07:11:27;21.10;67.20
27188;DHT22;14708;50.872;5.306;2022-10-15T07:13:53;21.10;67.10
27188;DHT22;14708;50.872;5.306;2022-10-15T07:16:19;21.10;68.20
27188;DHT22;14708;50.872;5.306;2022-10-15T07:18:46;21.10;67.20
27188;DHT22;14708;50.872;5.306;2022-10-15T07:21:12;21.10;67.10
27188;DHT22;14708;50.872;5.306;2022-10-15T07:23:37;21.10;67.30
27188;DHT22;14708;50.872;5.306;2022-10-15T07:26:03;21.10;67.40
27188;DHT22;14708;50.872;5.306;2022-10-15T07:28:29;21.10;67.30
27188;DHT22;14708;50.872;5.306;2022-10-15T07:30:59;21.10;67.30
27188;DHT22;14708;50.872;5.306;2022-10-15T07:33:25;21.10;67.20
27188;DHT22;14708;50.872;5.306;2022-10-15T07:35:51;21.10;67.30
27188;DHT22;14708;50.872;5.306;2022-10-15T07:38:16;21.10;67.40
27188;DHT22;14708;50.872;5.306;2022-10-15T07:40:42;21.20;67.00
27188;DHT22;14708;50.872;5.306;2022-10-15T07:43:08;21.10;66.90
27188;DHT22;14708;50.872;5.306;2022-10-15T07:45:33;21.10;67.10
27188;DHT22;14708;50.872;5.306;2022-10-15T07:48:00;21.10;67.20
27188;DHT22;14708;50.872;5.306;2022-10-15T07:50:26;21.20;67.60
27188;DHT22;14708;50.872;5.306;2022-10-15T07:52:51;21.20;67.80
27188;DHT22;14708;50.872;5.306;2022-10-15T07:55:17;21.20;67.80
27188;DHT22;14708;50.872;5.306;2022-10-15T07:57:43;21.20;68.10
27188;DHT22;14708;50.872;5.306;2022-10-15T08:00:09;21.10;68.40
27188;DHT22;14708;50.872;5.306;2022-10-15T08:02:35;21.20;68.30
27188;DHT22;14708;50.872;5.306;2022-10-15T08:05:00;21.20;68.50
27188;DHT22;14708;50.872;5.306;2022-10-15T08:07:28;21.20;68.40
27188;DHT22;14708;50.872;5.306;2022-10-15T08:09:54;21.20;68.10
27188;DHT22;14708;50.872;5.306;2022-10-15T08:12:19;21.30;68.20
27188;DHT22;14708;50.872;5.306;2022-10-15T08:14:45;21.50;67.90
27188;DHT22;14708;50.872;5.306;2022-10-15T08:17:13;21.60;67.40
27188;DHT22;14708;50.872;5.306;2022-10-15T08:19:41;21.50;67.60
27188;DHT22;14708;50.872;5.306;2022-10-15T08:22:07;21.60;67.90
27188;DHT22;14708;50.872;5.306;2022-10-15T08:24:32;21.60;67.80
27188;DHT22;14708;50.872;5.306;2022-10-15T08:26:58;21.70;67.80
27188;DHT22;14708;50.872;5.306;2022-10-15T08:29:24;21.80;67.80
27188;DHT22;14708;50.872;5.306;2022-10-15T08:31:49;21.90;67.80
27188;DHT22;14708;50.872;5.306;2022-10-15T08:34:15;22.00;67.50
27188;DHT22;14708;50.872;5.306;2022-10-15T08:36:41;22.10;67.30
27188;DHT22;14708;50.872;5.306;2022-10-15T08:39:07;22.10;67.20
27188;DHT22;14708;50.872;5.306;2022-10-15T08:41:47;22.00;66.70
27188;DHT22;14708;50.872;5.306;2022-10-15T08:44:33;22.00;67.20
27188;DHT22;14708;50.872;5.306;2022-10-15T08:47:11;22.00;67.60
27188;DHT22;14708;50.872;5.306;2022-10-15T08:49:51;21.90;67.80
27188;DHT22;14708;50.872;5.306;2022-10-15T08:52:25;21.80;68.10
27188;DHT22;14708;50.872;5.306;2022-10-15T08:54:52;21.80;68.20
27188;DHT22;14708;50.872;5.306;2022-10-15T09:05:52;21.80;68.40
27188;DHT22;14708;50.872;5.306;2022-10-15T09:08:35;21.90;68.60
27188;DHT22;14708;50.872;5.306;2022-10-15T09:11:23;21.80;68.80
27188;DHT22;14708;50.872;5.306;2022-10-15T09:13:54;21.80;68.80
27188;DHT22;14708;50.872;5.306;2022-10-15T09:16:39;21.80;68.80
27188;DHT22;14708;50.872;5.306;2022-10-15T09:19:12;21.80;68.90
27188;DHT22;14708;50.872;5.306;2022-10-15T09:21:40;21.90;68.50
27188;DHT22;14708;50.872;5.306;2022-10-15T09:24:09;21.90;68.70
27188;DHT22;14708;50.872;5.306;2022-10-15T09:29:47;22.10;68.30
27188;DHT22;14708;50.872;5.306;2022-10-15T09:32:22;22.10;67.90
27188;DHT22;14708;50.872;5.306;2022-10-15T09:37:25;22.30;67.30
27188;DHT22;14708;50.872;5.306;2022-10-15T09:40:23;22.40;67.30
27188;DHT22;14708;50.872;5.306;2022-10-15T09:42:56;22.40;67.30
27188;DHT22;14708;50.872;5.306;2022-10-15T09:45:22;22.50;67.30
27188;DHT22;14708;50.872;5.306;2022-10-15T09:47:49;22.50;67.10
27188;DHT22;14708;50.872;5.306;2022-10-15T09:50:14;22.50;67.10
27188;DHT22;14708;50.872;5.306;2022-10-15T09:55:34;22.50;67.00
27188;DHT22;14708;50.872;5.306;2022-10-15T09:58:11;22.50;66.90
27188;DHT22;14708;50.872;5.306;2022-10-15T10:01:02;22.50;67.40
27188;DHT22;14708;50.872;5.306;2022-10-15T10:03:30;22.50;67.70
27188;DHT22;14708;50.872;5.306;2022-10-15T10:08:26;22.50;69.00
27188;DHT22;14708;50.872;5.306;2022-10-15T10:11:06;22.50;69.00
27188;DHT22;14708;50.872;5.306;2022-10-15T10:13:50;22.60;68.90
27188;DHT22;14708;50.872;5.306;2022-10-15T10:16:18;22.60;68.60
27188;DHT22;14708;50.872;5.306;2022-10-15T10:19:10;22.60;69.00
27188;DHT22;14708;50.872;5.306;2022-10-15T10:21:37;22.50;69.10
27188;DHT22;14708;50.872;5.306;2022-10-15T10:26:48;22.60;69.00
27188;DHT22;14708;50.872;5.306;2022-10-15T10:29:20;22.60;69.00
27188;DHT22;14708;50.872;5.306;2022-10-15T10:31:47;22.60;69.00
27188;DHT22;14708;50.872;5.306;2022-10-15T10:34:23;22.60;69.00
27188;DHT22;14708;50.872;5.306;2022-10-15T10:36:51;22.60;68.90
27188;DHT22;14708;50.872;5.306;2022-10-15T10:39:30;22.60;69.50
27188;DHT22;14708;50.872;5.306;2022-10-15T10:42:01;22.60;69.40
27188;DHT22;14708;50.872;5.306;2022-10-15T10:44:35;22.60;69.50
27188;DHT22;14708;50.872;5.306;2022-10-15T10:49:31;22.60;69.60
27188;DHT22;14708;50.872;5.306;2022-10-15T10:51:57;22.60;69.50
27188;DHT22;14708;50.872;5.306;2022-10-15T10:54:23;22.60;69.20
27188;DHT22;14708;50.872;5.306;2022-10-15T10:56:49;22.60;69.40
27188;DHT22;14708;50.872;5.306;2022-10-15T10:59:27;22.60;69.00
27188;DHT22;14708;50.872;5.306;2022-10-15T11:01:55;22.60;69.10
27188;DHT22;14708;50.872;5.306;2022-10-15T11:04:29;22.60;69.40
27188;DHT22;14708;50.872;5.306;2022-10-15T11:24:32;22.70;68.10
27188;DHT22;14708;50.872;5.306;2022-10-15T11:40:26;22.60;68.40
27188;DHT22;14708;50.872;5.306;2022-10-15T11:43:02;22.70;68.30
27188;DHT22;14708;50.872;5.306;2022-10-15T11:45:51;22.70;68.80
27188;DHT22;14708;50.872;5.306;2022-10-15T11:51:37;22.80;67.10
27188;DHT22;14708;50.872;5.306;2022-10-15T11:56:53;22.80;67.40
27188;DHT22;14708;50.872;5.306;2022-10-15T11:59:53;22.80;67.20
27188;DHT22;14708;50.872;5.306;2022-10-15T12:02:36;22.80;67.70
27188;DHT22;14708;50.872;5.306;2022-10-15T12:05:10;22.80;67.70
27188;DHT22;14708;50.872;5.306;2022-10-15T12:07:42;22.80;67.80
27188;DHT22;14708;50.872;5.306;2022-10-15T12:12:57;22.70;68.00
27188;DHT22;14708;50.872;5.306;2022-10-15T12:20:52;22.60;68.50
27188;DHT22;14708;50.872;5.306;2022-10-15T12:23:24;22.60;68.50
27188;DHT22;14708;50.872;5.306;2022-10-15T12:25:50;22.70;68.70
27188;DHT22;14708;50.872;5.306;2022-10-15T12:28:24;22.70;69.00
27188;DHT22;14708;50.872;5.306;2022-10-15T12:31:02;22.60;68.80
27188;DHT22;14708;50.872;5.306;2022-10-15T12:33:32;22.70;68.40
27188;DHT22;14708;50.872;5.306;2022-10-15T12:36:19;22.80;68.90
27188;DHT22;14708;50.872;5.306;2022-10-15T12:39:07;22.80;68.80
27188;DHT22;14708;50.872;5.306;2022-10-15T12:41:46;22.70;68.90
27188;DHT22;14708;50.872;5.306;2022-10-15T12:46:40;22.70;68.90
27188;DHT22;14708;50.872;5.306;2022-10-15T12:51:51;22.80;68.60
27188;DHT22;14708;50.872;5.306;2022-10-15T12:59:59;22.90;69.00
27188;DHT22;14708;50.872;5.306;2022-10-15T13:04:59;22.90;68.90
27188;DHT22;14708;50.872;5.306;2022-10-15T13:07:25;22.90;69.30
27188;DHT22;14708;50.872;5.306;2022-10-15T13:09:51;23.00;69.70
27188;DHT22;14708;50.872;5.306;2022-10-15T13:12:23;23.00;69.70
27188;DHT22;14708;50.872;5.306;2022-10-15T13:14:55;23.00;69.60
27188;DHT22;14708;50.872;5.306;2022-10-15T13:17:22;23.00;69.60
27188;DHT22;14708;50.872;5.306;2022-10-15T13:20:03;23.00;69.90
27188;DHT22;14708;50.872;5.306;2022-10-15T13:22:31;23.00;70.10
27188;DHT22;14708;50.872;5.306;2022-10-15T13:24:58;23.00;70.50
27188;DHT22;14708;50.872;5.306;2022-10-15T13:27:35;23.00;70.20
27188;DHT22;14708;50.872;5.306;2022-10-15T13:30:12;23.10;70.20
27188;DHT22;14708;50.872;5.306;2022-10-15T13:32:47;23.20;69.70
27188;DHT22;14708;50.872;5.306;2022-10-15T13:35:20;23.20;69.70
27188;DHT22;14708;50.872;5.306;2022-10-15T13:37:46;23.30;69.20
27188;DHT22;14708;50.872;5.306;2022-10-15T13:40:23;23.40;69.80
27188;DHT22;14708;50.872;5.306;2022-10-15T13:43:00;23.40;69.80
27188;DHT22;14708;50.872;5.306;2022-10-15T13:45:26;23.40;69.90
27188;DHT22;14708;50.872;5.306;2022-10-15T13:47:53;23.40;70.20
27188;DHT22;14708;50.872;5.306;2022-10-15T13:50:33;23.20;70.00
27188;DHT22;14708;50.872;5.306;2022-10-15T13:53:28;23.20;70.40
27188;DHT22;14708;50.872;5.306;2022-10-15T13:55:59;23.20;70.20
27188;DHT22;14708;50.872;5.306;2022-10-15T13:58:36;23.10;70.50
27188;DHT22;14708;50.872;5.306;2022-10-15T14:01:21;23.00;70.70
27188;DHT22;14708;50.872;5.306;2022-10-15T14:06:26;23.10;70.30
27188;DHT22;14708;50.872;5.306;2022-10-15T14:08:57;23.00;70.40
27188;DHT22;14708;50.872;5.306;2022-10-15T14:11:24;23.00;70.30
27188;DHT22;14708;50.872;5.306;2022-10-15T14:13:52;23.00;70.50
27188;DHT22;14708;50.872;5.306;2022-10-15T14:16:32;23.00;70.60
27188;DHT22;14708;50.872;5.306;2022-10-15T14:19:09;23.00;70.90
27188;DHT22;14708;50.872;5.306;2022-10-15T14:21:36;23.00;70.80
27188;DHT22;14708;50.872;5.306;2022-10-15T14:24:15;23.00;70.90
27188;DHT22;14708;50.872;5.306;2022-10-15T14:26:41;23.00;70.90
27188;DHT22;14708;50.872;5.306;2022-10-15T14:29:27;23.00;71.00
27188;DHT22;14708;50.872;5.306;2022-10-15T14:31:53;23.00;71.00
27188;DHT22;14708;50.872;5.306;2022-10-15T14:40:07;23.00;70.50
27188;DHT22;14708;50.872;5.306;2022-10-15T14:45:25;23.00;70.70
27188;DHT22;14708;50.872;5.306;2022-10-15T14:48:08;23.00;70.70
27188;DHT22;14708;50.872;5.306;2022-10-15T14:50:42;23.00;70.80
27188;DHT22;14708;50.872;5.306;2022-10-15T14:53:15;23.00;70.60
27188;DHT22;14708;50.872;5.306;2022-10-15T14:55:46;23.00;70.80
27188;DHT22;14708;50.872;5.306;2022-10-15T14:58:18;23.00;70.70
27188;DHT22;14708;50.872;5.306;2022-10-15T15:00:46;23.00;70.60
27188;DHT22;14708;50.872;5.306;2022-10-15T15:03:17;23.00;70.80
27188;DHT22;14708;50.872;5.306;2022-10-15T15:05:51;23.00;70.60
27188;DHT22;14708;50.872;5.306;2022-10-15T15:08:18;23.00;70.80
27188;DHT22;14708;50.872;5.306;2022-10-15T15:10:44;23.00;70.70
27188;DHT22;14708;50.872;5.306;2022-10-15T15:13:14;23.00;70.90
27188;DHT22;14708;50.872;5.306;2022-10-15T15:15:43;23.00;71.20
27188;DHT22;14708;50.872;5.306;2022-10-15T15:18:11;23.00;70.00
27188;DHT22;14708;50.872;5.306;2022-10-15T15:20:39;23.10;70.40
27188;DHT22;14708;50.872;5.306;2022-10-15T15:23:05;23.20;70.10
27188;DHT22;14708;50.872;5.306;2022-10-15T15:25:33;23.30;70.20
27188;DHT22;14708;50.872;5.306;2022-10-15T15:28:00;23.30;70.30
27188;DHT22;14708;50.872;5.306;2022-10-15T15:30:28;23.20;70.40
27188;DHT22;14708;50.872;5.306;2022-10-15T15:32:55;23.30;70.70
27188;DHT22;14708;50.872;5.306;2022-10-15T15:37:46;23.20;71.10
27188;DHT22;14708;50.872;5.306;2022-10-15T15:40:12;23.20;71.00
27188;DHT22;14708;50.872;5.306;2022-10-15T15:42:37;23.20;71.00
27188;DHT22;14708;50.872;5.306;2022-10-15T15:45:03;23.20;70.90
27188;DHT22;14708;50.872;5.306;2022-10-15T15:47:29;23.10;71.20
27188;DHT22;14708;50.872;5.306;2022-10-15T15:49:54;23.10;71.10
27188;DHT22;14708;50.872;5.306;2022-10-15T15:52:20;23.10;71.20
27188;DHT22;14708;50.872;5.306;2022-10-15T15:54:46;23.10;71.30
27188;DHT22;14708;50.872;5.306;2022-10-15T15:57:12;23.10;71.60
27188;DHT22;14708;50.872;5.306;2022-10-15T15:59:37;23.10;71.50
27188;DHT22;14708;50.872;5.306;2022-10-15T16:02:03;23.10;71.30
27188;DHT22;14708;50.872;5.306;2022-10-15T16:04:29;23.20;72.20
27188;DHT22;14708;50.872;5.306;2022-10-15T16:06:54;23.30;71.80
27188;DHT22;14708;50.872;5.306;2022-10-15T16:09:20;23.20;69.60
27188;DHT22;14708;50.872;5.306;2022-10-15T16:11:48;23.20;66.80
27188;DHT22;14708;50.872;5.306;2022-10-15T16:14:13;23.10;66.30
27188;DHT22;14708;50.872;5.306;2022-10-15T16:16:39;23.10;68.00
27188;DHT22;14708;50.872;5.306;2022-10-15T16:19:05;23.10;68.50
27188;DHT22;14708;50.872;5.306;2022-10-15T16:21:31;23.10;68.80
27188;DHT22;14708;50.872;5.306;2022-10-15T16:23:57;23.00;69.40
27188;DHT22;14708;50.872;5.306;2022-10-15T16:26:22;23.00;70.00
27188;DHT22;14708;50.872;5.306;2022-10-15T16:28:48;23.10;69.70
27188;DHT22;14708;50.872;5.306;2022-10-15T16:31:26;23.00;69.80
27188;DHT22;14708;50.872;5.306;2022-10-15T16:33:53;23.00;70.50
27188;DHT22;14708;50.872;5.306;2022-10-15T16:36:19;23.00;70.50
27188;DHT22;14708;50.872;5.306;2022-10-15T16:38:46;23.10;70.10
27188;DHT22;14708;50.872;5.306;2022-10-15T16:41:13;23.00;70.20
27188;DHT22;14708;50.872;5.306;2022-10-15T16:43:39;23.10;70.40
27188;DHT22;14708;50.872;5.306;2022-10-15T16:46:06;23.00;67.60
27188;DHT22;14708;50.872;5.306;2022-10-15T16:48:32;23.00;65.40
27188;DHT22;14708;50.872;5.306;2022-10-15T16:51:03;23.00;68.70
27188;DHT22;14708;50.872;5.306;2022-10-15T16:53:33;23.10;69.40
27188;DHT22;14708;50.872;5.306;2022-10-15T16:56:05;23.00;70.00
27188;DHT22;14708;50.872;5.306;2022-10-15T16:58:31;23.00;70.00
27188;DHT22;14708;50.872;5.306;2022-10-15T17:01:05;23.00;70.40
27188;DHT22;14708;50.872;5.306;2022-10-15T17:03:33;23.00;70.40
27188;DHT22;14708;50.872;5.306;2022-10-15T17:06:00;23.00;70.30
27188;DHT22;14708;50.872;5.306;2022-10-15T17:08:38;22.90;70.10
27188;DHT22;14708;50.872;5.306;2022-10-15T17:11:08;22.90;70.20
27188;DHT22;14708;50.872;5.306;2022-10-15T17:13:33;22.90;70.30
27188;DHT22;14708;50.872;5.306;2022-10-15T17:16:17;22.90;70.50
27188;DHT22;14708;50.872;5.306;2022-10-15T17:18:43;23.00;70.30
27188;DHT22;14708;50.872;5.306;2022-10-15T17:21:10;23.00;70.30
27188;DHT22;14708;50.872;5.306;2022-10-15T17:23:36;23.00;70.30
27188;DHT22;14708;50.872;5.306;2022-10-15T17:26:07;23.00;70.00
27188;DHT22;14708;50.872;5.306;2022-10-15T17:28:33;23.00;70.10
27188;DHT22;14708;50.872;5.306;2022-10-15T17:31:07;23.10;70.10
27188;DHT22;14708;50.872;5.306;2022-10-15T17:33:37;23.00;70.20
27188;DHT22;14708;50.872;5.306;2022-10-15T17:36:09;23.00;70.10
27188;DHT22;14708;50.872;5.306;2022-10-15T17:38:35;23.00;70.50
27188;DHT22;14708;50.872;5.306;2022-10-15T17:41:05;22.90;70.50
27188;DHT22;14708;50.872;5.306;2022-10-15T17:43:31;22.80;70.30
27188;DHT22;14708;50.872;5.306;2022-10-15T17:45:58;23.00;70.40